sensor_id;sensor_type;location;lat;lon;timestamp;pressure;altitude;pressure_sealevel;temperature
68446;BMP280;35789;48.414;12.768;2023-04-12T00:00:00;96750.0;;;
68446;BMP280;35789;48.414;12.768;2023-04-12T00:05:00;96740.0;;;
68446;BMP280;35789;48.414;12.768;2023-04-12T00:10:00;96730.0;;;
68446;BMP280;35789;48.414;12.768;2023-04-12T00:15:00;96720.0;;;
68446;BMP280;35789;48.414;12.768;2023-04-12T00:20:01;96710.0;;;
68446;BMP280;35789;48.414;12.768;2023-04-12T00:25:00;96700.0;;;
68446;BMP280;35789;48.414;12.768;2023-04-12T00:30:00;96700.0;;;
68446;BMP280;35789;48.414;12.768;2023-04-12T00:35:00;96690.0;;;
68446;BMP280;35789;48.414;12.768;2023-04-12T00:40:00;96690.0;;;
68446;BMP280;35789;48.414;12.768;2023-04-12T00:45:00;96670.0;;;
68446;BMP280;35789;48.414;12.768;2023-04-12T00:50:01;96670.0;;;
68446;BMP280;35789;48.414;12.768;2023-04-12T00:55:03;96660.0;;;
68446;BMP280;35789;48.414;12.768;2023-04-12T01:00:01;96650.0;;;
68446;BMP280;35789;48.414;12.768;2023-04-12T01:05:01;96640.0;;;
68446;BMP280;35789;48.414;12.768;2023-04-12T01:10:09;96640.0;;;
68446;BMP280;35789;48.414;12.768;2023-04-12T01:15:06;96650.0;;;
68446;BMP280;35789;48.414;12.768;2023-04-12T01:20:05;96650.0;;;
68446;BMP280;35789;48.414;12.768;2023-04-12T01:25:13;96640.0;;;
68446;BMP280;35789;48.414;12.768;2023-04-12T01:30:03;96640.0;;;
68446;BMP280;35789;48.414;12.768;2023-04-12T01:35:03;96630.0;;;
68446;BMP280;35789;48.414;12.768;2023-04-12T01:40:01;96630.0;;;
68446;BMP280;35789;48.414;12.768;2023-04-12T01:45:02;96630.0;;;
68446;BMP280;35789;48.414;12.768;2023-04-12T01:50:15;96630.0;;;
68446;BMP280;35789;48.414;12.768;2023-04-12T01:55:04;96620.0;;;
68446;BMP280;35789;48.414;12.768;2023-04-12T02:00:02;96620.0;;;
68446;BMP280;35789;48.414;12.768;2023-04-12T02:05:01;96610.0;;;
68446;BMP280;35789;48.414;12.768;2023-04-12T02:10:01;96600.0;;;
68446;BMP280;35789;48.414;12.768;2023-04-12T02:15:00;96600.0;;;
68446;BMP280;35789;48.414;12.768;2023-04-12T02:20:00;96600.0;;;
68446;BMP280;35789;48.414;12.768;2023-04-12T02:25:00;96590.0;;;
68446;BMP280;35789;48.414;12.768;2023-04-12T02:30:00;96580.0;;;
68446;BMP280;35789;48.414;12.768;2023-04-12T02:35:00;96570.0;;;
68446;BMP280;35789;48.414;12.768;2023-04-12T02:40:00;96570.0;;;
68446;BMP280;35789;48.414;12.768;2023-04-12T02:45:00;96570.0;;;
68446;BMP280;35789;48.414;12.768;2023-04-12T02:50:00;96560.0;;;
68446;BMP280;35789;48.414;12.768;2023-04-12T02:55:00;96560.0;;;
68446;BMP280;35789;48.414;12.768;2023-04-12T03:00:00;96550.0;;;
68446;BMP280;35789;48.414;12.768;2023-04-12T03:05:00;96550.0;;;
68446;BMP280;35789;48.414;12.768;2023-04-12T03:10:01;96550.0;;;
68446;BMP280;35789;48.414;12.768;2023-04-12T03:15:00;96550.0;;;
68446;BMP280;35789;48.414;12.768;2023-04-12T03:20:05;96540.0;;;
68446;BMP280;35789;48.414;12.768;2023-04-12T03:25:00;96540.0;;;
68446;BMP280;35789;48.414;12.768;2023-04-12T03:30:00;96530.0;;;
68446;BMP280;35789;48.414;12.768;2023-04-12T03:35:00;96530.0;;;
68446;BMP280;35789;48.414;12.768;2023-04-12T03:40:00;96530.0;;;
68446;BMP280;35789;48.414;12.768;2023-04-12T03:45:00;96520.0;;;
68446;BMP280;35789;48.414;12.768;2023-04-12T03:50:04;96520.0;;;
68446;BMP280;35789;48.414;12.768;2023-04-12T03:55:00;96520.0;;;
68446;BMP280;35789;48.414;12.768;2023-04-12T04:00:02;96520.0;;;
68446;BMP280;35789;48.414;12.768;2023-04-12T04:05:01;96520.0;;;
68446;BMP280;35789;48.414;12.768;2023-04-12T04:10:00;96520.0;;;
68446;BMP280;35789;48.414;12.768;2023-04-12T04:15:00;96530.0;;;
68446;BMP280;35789;48.414;12.768;2023-04-12T04:20:00;96530.0;;;
68446;BMP280;35789;48.414;12.768;2023-04-12T04:25:00;96520.0;;;
68446;BMP280;35789;48.414;12.768;2023-04-12T04:30:00;96520.0;;;
68446;BMP280;35789;48.414;12.768;2023-04-12T04:35:00;96510.0;;;
68446;BMP280;35789;48.414;12.768;2023-04-12T04:40:00;96510.0;;;
68446;BMP280;35789;48.414;12.768;2023-04-12T04:45:00;96500.0;;;
68446;BMP280;35789;48.414;12.768;2023-04-12T04:50:00;96510.0;;;
68446;BMP280;35789;48.414;12.768;2023-04-12T04:55:00;96500.0;;;
68446;BMP280;35789;48.414;12.768;2023-04-12T05:00:01;96510.0;;;
68446;BMP280;35789;48.414;12.768;2023-04-12T05:05:00;96510.0;;;
68446;BMP280;35789;48.414;12.768;2023-04-12T05:10:01;96510.0;;;
68446;BMP280;35789;48.414;12.768;2023-04-12T05:15:01;96520.0;;;
68446;BMP280;35789;48.414;12.768;2023-04-12T05:20:01;96510.0;;;
68446;BMP280;35789;48.414;12.768;2023-04-12T05:25:00;96500.0;;;
68446;BMP280;35789;48.414;12.768;2023-04-12T05:30:00;96500.0;;;
68446;BMP280;35789;48.414;12.768;2023-04-12T05:35:00;96490.0;;;
68446;BMP280;35789;48.414;12.768;2023-04-12T05:40:00;96490.0;;;
68446;BMP280;35789;48.414;12.768;2023-04-12T05:45:00;96480.0;;;
68446;BMP280;35789;48.414;12.768;2023-04-12T05:50:00;96480.0;;;
68446;BMP280;35789;48.414;12.768;2023-04-12T05:55:00;96480.0;;;
68446;BMP280;35789;48.414;12.768;2023-04-12T06:00:00;96470.0;;;
68446;BMP280;35789;48.414;12.768;2023-04-12T06:05:00;96450.0;;;
68446;BMP280;35789;48.414;12.768;2023-04-12T06:10:00;96450.0;;;
68446;BMP280;35789;48.414;12.768;2023-04-12T06:15:00;96430.0;;;
68446;BMP280;35789;48.414;12.768;2023-04-12T06:20:00;96420.0;;;
68446;BMP280;35789;48.414;12.768;2023-04-12T06:25:00;96420.0;;;
68446;BMP280;35789;48.414;12.768;2023-04-12T06:30:00;96410.0;;;
68446;BMP280;35789;48.414;12.768;2023-04-12T06:35:00;96410.0;;;
68446;BMP280;35789;48.414;12.768;2023-04-12T06:40:00;96400.0;;;
68446;BMP280;35789;48.414;12.768;2023-04-12T06:45:00;96390.0;;;
68446;BMP280;35789;48.414;12.768;2023-04-12T06:50:00;96390.0;;;
68446;BMP280;35789;48.414;12.768;2023-04-12T06:55:00;96380.0;;;
68446;BMP280;35789;48.414;12.768;2023-04-12T07:00:02;96370.0;;;
68446;BMP280;35789;48.414;12.768;2023-04-12T07:05:00;96370.0;;;
68446;BMP280;35789;48.414;12.768;2023-04-12T07:10:00;96350.0;;;
68446;BMP280;35789;48.414;12.768;2023-04-12T07:15:00;96350.0;;;
68446;BMP280;35789;48.414;12.768;2023-04-12T07:20:00;96350.0;;;
68446;BMP280;35789;48.414;12.768;2023-04-12T07:25:00;96330.0;;;
68446;BMP280;35789;48.414;12.768;2023-04-12T07:30:00;96330.0;;;
68446;BMP280;35789;48.414;12.768;2023-04-12T07:35:00;96330.0;;;
68446;BMP280;35789;48.414;12.768;2023-04-12T07:40:00;96320.0;;;
68446;BMP280;35789;48.414;12.768;2023-04-12T07:45:00;96320.0;;;
68446;BMP280;35789;48.414;12.768;2023-04-12T07:50:00;96310.0;;;
68446;BMP280;35789;48.414;12.768;2023-04-12T07:55:00;96300.0;;;
68446;BMP280;35789;48.414;12.768;2023-04-12T08:00:02;96300.0;;;
68446;BMP280;35789;48.414;12.768;2023-04-12T08:05:00;96290.0;;;
68446;BMP280;35789;48.414;12.768;2023-04-12T08:10:00;96280.0;;;
68446;BMP280;35789;48.414;12.768;2023-04-12T08:15:00;96280.0;;;
68446;BMP280;35789;48.414;12.768;2023-04-12T08:20:00;96270.0;;;
68446;BMP280;35789;48.414;12.768;2023-04-12T08:25:00;96260.0;;;
68446;BMP280;35789;48.414;12.768;2023-04-12T08:30:00;96270.0;;;
68446;BMP280;35789;48.414;12.768;2023-04-12T08:35:00;96270.0;;;
68446;BMP280;35789;48.414;12.768;2023-04-12T08:40:03;96270.0;;;
68446;BMP280;35789;48.414;12.768;2023-04-12T08:45:04;96270.0;;;
68446;BMP280;35789;48.414;12.768;2023-04-12T08:50:01;96260.0;;;
68446;BMP280;35789;48.414;12.768;2023-04-12T08:55:01;96250.0;;;
68446;BMP280;35789;48.414;12.768;2023-04-12T09:00:02;96250.0;;;
68446;BMP280;35789;48.414;12.768;2023-04-12T09:05:00;96240.0;;;
68446;BMP280;35789;48.414;12.768;2023-04-12T09:10:00;96230.0;;;
68446;BMP280;35789;48.414;12.768;2023-04-12T09:15:06;96220.0;;;
68446;BMP280;35789;48.414;12.768;2023-04-12T09:20:00;96210.0;;;
68446;BMP280;35789;48.414;12.768;2023-04-12T09:25:01;96200.0;;;
68446;BMP280;35789;48.414;12.768;2023-04-12T09:30:08;96200.0;;;
68446;BMP280;35789;48.414;12.768;2023-04-12T09:35:00;96190.0;;;
68446;BMP280;35789;48.414;12.768;2023-04-12T09:40:02;96170.0;;;
68446;BMP280;35789;48.414;12.768;2023-04-12T09:45:18;96170.0;;;
68446;BMP280;35789;48.414;12.768;2023-04-12T09:50:01;96160.0;;;
68446;BMP280;35789;48.414;12.768;2023-04-12T09:55:02;96160.0;;;
68446;BMP280;35789;48.414;12.768;2023-04-12T10:00:07;96150.0;;;
68446;BMP280;35789;48.414;12.768;2023-04-12T10:05:01;96150.0;;;
68446;BMP280;35789;48.414;12.768;2023-04-12T10:10:01;96150.0;;;
68446;BMP280;35789;48.414;12.768;2023-04-12T10:15:03;96140.0;;;
68446;BMP280;35789;48.414;12.768;2023-04-12T10:20:02;96150.0;;;
68446;BMP280;35789;48.414;12.768;2023-04-12T10:25:00;96140.0;;;
68446;BMP280;35789;48.414;12.768;2023-04-12T10:30:18;96120.0;;;
68446;BMP280;35789;48.414;12.768;2023-04-12T10:35:01;96100.0;;;
68446;BMP280;35789;48.414;12.768;2023-04-12T10:40:02;96090.0;;;
68446;BMP280;35789;48.414;12.768;2023-04-12T10:50:19;96080.0;;;
68446;BMP280;35789;48.414;12.768;2023-04-12T10:55:28;96060.0;;;
68446;BMP280;35789;48.414;12.768;2023-04-12T11:00:00;96040.0;;;
68446;BMP280;35789;48.414;12.768;2023-04-12T11:05:04;96040.0;;;
68446;BMP280;35789;48.414;12.768;2023-04-12T11:10:00;96020.0;;;
68446;BMP280;35789;48.414;12.768;2023-04-12T11:15:02;96010.0;;;
68446;BMP280;35789;48.414;12.768;2023-04-12T11:20:00;95980.0;;;
68446;BMP280;35789;48.414;12.768;2023-04-12T11:25:01;95970.0;;;
68446;BMP280;35789;48.414;12.768;2023-04-12T11:30:00;95980.0;;;
68446;BMP280;35789;48.414;12.768;2023-04-12T11:35:00;95970.0;;;
68446;BMP280;35789;48.414;12.768;2023-04-12T11:40:03;95960.0;;;
68446;BMP280;35789;48.414;12.768;2023-04-12T11:45:01;95940.0;;;
68446;BMP280;35789;48.414;12.768;2023-04-12T11:50:00;95950.0;;;
68446;BMP280;35789;48.414;12.768;2023-04-12T11:55:03;95940.0;;;
68446;BMP280;35789;48.414;12.768;2023-04-12T12:00:01;95940.0;;;
68446;BMP280;35789;48.414;12.768;2023-04-12T12:05:00;95930.0;;;
68446;BMP280;35789;48.414;12.768;2023-04-12T12:10:00;95920.0;;;
68446;BMP280;35789;48.414;12.768;2023-04-12T12:15:01;95910.0;;;
68446;BMP280;35789;48.414;12.768;2023-04-12T12:20:00;95900.0;;;
68446;BMP280;35789;48.414;12.768;2023-04-12T12:25:00;95900.0;;;
68446;BMP280;35789;48.414;12.768;2023-04-12T12:30:01;95900.0;;;
68446;BMP280;35789;48.414;12.768;2023-04-12T12:35:00;95890.0;;;
68446;BMP280;35789;48.414;12.768;2023-04-12T12:40:03;95870.0;;;
68446;BMP280;35789;48.414;12.768;2023-04-12T12:45:00;95870.0;;;
68446;BMP280;35789;48.414;12.768;2023-04-12T12:50:00;95880.0;;;
68446;BMP280;35789;48.414;12.768;2023-04-12T12:55:00;95870.0;;;
68446;BMP280;35789;48.414;12.768;2023-04-12T13:00:00;95850.0;;;
68446;BMP280;35789;48.414;12.768;2023-04-12T13:05:00;95870.0;;;
68446;BMP280;35789;48.414;12.768;2023-04-12T13:10:01;95870.0;;;
68446;BMP280;35789;48.414;12.768;2023-04-12T13:15:01;95880.0;;;
68446;BMP280;35789;48.414;12.768;2023-04-12T13:20:00;95880.0;;;
68446;BMP280;35789;48.414;12.768;2023-04-12T13:25:00;95880.0;;;
68446;BMP280;35789;48.414;12.768;2023-04-12T13:30:00;95850.0;;;
68446;BMP280;35789;48.414;12.768;2023-04-12T13:35:01;95850.0;;;
68446;BMP280;35789;48.414;12.768;2023-04-12T13:40:00;95840.0;;;
68446;BMP280;35789;48.414;12.768;2023-04-12T13:45:00;95850.0;;;
68446;BMP280;35789;48.414;12.768;2023-04-12T13:50:00;95850.0;;;
68446;BMP280;35789;48.414;12.768;2023-04-12T13:55:00;95850.0;;;
68446;BMP280;35789;48.414;12.768;2023-04-12T14:00:00;95860.0;;;
68446;BMP280;35789;48.414;12.768;2023-04-12T14:05:00;95850.0;;;
68446;BMP280;35789;48.414;12.768;2023-04-12T14:10:00;95840.0;;;
68446;BMP280;35789;48.414;12.768;2023-04-12T14:15:00;95840.0;;;
68446;BMP280;35789;48.414;12.768;2023-04-12T14:20:00;95830.0;;;
68446;BMP280;35789;48.414;12.768;2023-04-12T14:25:00;95820.0;;;
68446;BMP280;35789;48.414;12.768;2023-04-12T14:30:00;95810.0;;;
68446;BMP280;35789;48.414;12.768;2023-04-12T14:35:00;95810.0;;;
68446;BMP280;35789;48.414;12.768;2023-04-12T14:40:00;95790.0;;;
68446;BMP280;35789;48.414;12.768;2023-04-12T14:45:00;95770.0;;;
68446;BMP280;35789;48.414;12.768;2023-04-12T14:50:00;95770.0;;;
68446;BMP280;35789;48.414;12.768;2023-04-12T14:55:00;95770.0;;;
68446;BMP280;35789;48.414;12.768;2023-04-12T15:00:00;95760.0;;;
68446;BMP280;35789;48.414;12.768;2023-04-12T15:05:00;95750.0;;;
68446;BMP280;35789;48.414;12.768;2023-04-12T15:10:00;95750.0;;;
68446;BMP280;35789;48.414;12.768;2023-04-12T15:15:01;95760.0;;;
68446;BMP280;35789;48.414;12.768;2023-04-12T15:20:00;95750.0;;;
68446;BMP280;35789;48.414;12.768;2023-04-12T15:25:01;95750.0;;;
68446;BMP280;35789;48.414;12.768;2023-04-12T15:30:00;95750.0;;;
68446;BMP280;35789;48.414;12.768;2023-04-12T15:35:00;95720.0;;;
68446;BMP280;35789;48.414;12.768;2023-04-12T15:40:00;95740.0;;;
68446;BMP280;35789;48.414;12.768;2023-04-12T15:45:00;95730.0;;;
68446;BMP280;35789;48.414;12.768;2023-04-12T15:50:01;95730.0;;;
68446;BMP280;35789;48.414;12.768;2023-04-12T15:55:00;95720.0;;;
68446;BMP280;35789;48.414;12.768;2023-04-12T16:00:00;95720.0;;;
68446;BMP280;35789;48.414;12.768;2023-04-12T16:05:00;95710.0;;;
68446;BMP280;35789;48.414;12.768;2023-04-12T16:10:00;95710.0;;;
68446;BMP280;35789;48.414;12.768;2023-04-12T16:15:00;95700.0;;;
68446;BMP280;35789;48.414;12.768;2023-04-12T16:20:00;95700.0;;;
68446;BMP280;35789;48.414;12.768;2023-04-12T16:25:00;95700.0;;;
68446;BMP280;35789;48.414;12.768;2023-04-12T16:30:01;95690.0;;;
68446;BMP280;35789;48.414;12.768;2023-04-12T16:35:00;95690.0;;;
68446;BMP280;35789;48.414;12.768;2023-04-12T16:40:00;95700.0;;;
68446;BMP280;35789;48.414;12.768;2023-04-12T16:45:00;95700.0;;;
68446;BMP280;35789;48.414;12.768;2023-04-12T16:50:00;95680.0;;;
68446;BMP280;35789;48.414;12.768;2023-04-12T16:55:01;95690.0;;;
68446;BMP280;35789;48.414;12.768;2023-04-12T17:00:00;95670.0;;;
68446;BMP280;35789;48.414;12.768;2023-04-12T17:05:00;95670.0;;;
68446;BMP280;35789;48.414;12.768;2023-04-12T17:10:00;95670.0;;;
68446;BMP280;35789;48.414;12.768;2023-04-12T17:15:00;95670.0;;;
68446;BMP280;35789;48.414;12.768;2023-04-12T17:20:00;95670.0;;;
68446;BMP280;35789;48.414;12.768;2023-04-12T17:25:00;95660.0;;;
68446;BMP280;35789;48.414;12.768;2023-04-12T17:30:00;95660.0;;;
68446;BMP280;35789;48.414;12.768;2023-04-12T17:35:01;95660.0;;;
68446;BMP280;35789;48.414;12.768;2023-04-12T17:40:00;95650.0;;;
68446;BMP280;35789;48.414;12.768;2023-04-12T17:45:00;95650.0;;;
68446;BMP280;35789;48.414;12.768;2023-04-12T17:50:00;95660.0;;;
68446;BMP280;35789;48.414;12.768;2023-04-12T17:55:01;95650.0;;;
68446;BMP280;35789;48.414;12.768;2023-04-12T18:00:00;95650.0;;;
68446;BMP280;35789;48.414;12.768;2023-04-12T18:05:00;95640.0;;;
68446;BMP280;35789;48.414;12.768;2023-04-12T18:10:00;95640.0;;;
68446;BMP280;35789;48.414;12.768;2023-04-12T18:15:01;95650.0;;;
68446;BMP280;35789;48.414;12.768;2023-04-12T18:20:00;95650.0;;;
68446;BMP280;35789;48.414;12.768;2023-04-12T18:25:00;95650.0;;;
68446;BMP280;35789;48.414;12.768;2023-04-12T18:30:00;95650.0;;;
68446;BMP280;35789;48.414;12.768;2023-04-12T18:35:00;95650.0;;;
68446;BMP280;35789;48.414;12.768;2023-04-12T18:40:00;95650.0;;;
68446;BMP280;35789;48.414;12.768;2023-04-12T18:45:00;95650.0;;;
68446;BMP280;35789;48.414;12.768;2023-04-12T18:50:00;95670.0;;;
68446;BMP280;35789;48.414;12.768;2023-04-12T18:55:00;95660.0;;;
68446;BMP280;35789;48.414;12.768;2023-04-12T19:00:00;95660.0;;;
68446;BMP280;35789;48.414;12.768;2023-04-12T19:05:00;95660.0;;;
68446;BMP280;35789;48.414;12.768;2023-04-12T19:10:00;95660.0;;;
68446;BMP280;35789;48.414;12.768;2023-04-12T19:15:00;95680.0;;;
68446;BMP280;35789;48.414;12.768;2023-04-12T19:20:01;95690.0;;;
68446;BMP280;35789;48.414;12.768;2023-04-12T19:25:00;95700.0;;;
68446;BMP280;35789;48.414;12.768;2023-04-12T19:30:00;95700.0;;;
68446;BMP280;35789;48.414;12.768;2023-04-12T19:35:00;95710.0;;;
68446;BMP280;35789;48.414;12.768;2023-04-12T19:40:00;95720.0;;;
68446;BMP280;35789;48.414;12.768;2023-04-12T19:45:01;95730.0;;;
68446;BMP280;35789;48.414;12.768;2023-04-12T19:50:00;95740.0;;;
68446;BMP280;35789;48.414;12.768;2023-04-12T19:55:00;95740.0;;;
68446;BMP280;35789;48.414;12.768;2023-04-12T20:00:00;95740.0;;;
68446;BMP280;35789;48.414;12.768;2023-04-12T20:05:02;95750.0;;;
68446;BMP280;35789;48.414;12.768;2023-04-12T20:10:00;95760.0;;;
68446;BMP280;35789;48.414;12.768;2023-04-12T20:15:00;95750.0;;;
68446;BMP280;35789;48.414;12.768;2023-04-12T20:20:00;95750.0;;;
68446;BMP280;35789;48.414;12.768;2023-04-12T20:25:00;95760.0;;;
68446;BMP280;35789;48.414;12.768;2023-04-12T20:30:01;95760.0;;;
68446;BMP280;35789;48.414;12.768;2023-04-12T20:35:01;95760.0;;;
68446;BMP280;35789;48.414;12.768;2023-04-12T20:40:00;95760.0;;;
68446;BMP280;35789;48.414;12.768;2023-04-12T20:45:00;95760.0;;;
68446;BMP280;35789;48.414;12.768;2023-04-12T20:50:00;95770.0;;;
68446;BMP280;35789;48.414;12.768;2023-04-12T20:55:00;95790.0;;;
68446;BMP280;35789;48.414;12.768;2023-04-12T21:00:00;95800.0;;;
68446;BMP280;35789;48.414;12.768;2023-04-12T21:05:00;95810.0;;;
68446;BMP280;35789;48.414;12.768;2023-04-12T21:10:00;95820.0;;;
68446;BMP280;35789;48.414;12.768;2023-04-12T21:15:00;95820.0;;;
68446;BMP280;35789;48.414;12.768;2023-04-12T21:20:01;95830.0;;;
68446;BMP280;35789;48.414;12.768;2023-04-12T21:25:00;95830.0;;;
68446;BMP280;35789;48.414;12.768;2023-04-12T21:30:00;95830.0;;;
68446;BMP280;35789;48.414;12.768;2023-04-12T21:35:00;95840.0;;;
68446;BMP280;35789;48.414;12.768;2023-04-12T21:40:01;95850.0;;;
68446;BMP280;35789;48.414;12.768;2023-04-12T21:45:01;95840.0;;;
68446;BMP280;35789;48.414;12.768;2023-04-12T21:50:01;95850.0;;;
68446;BMP280;35789;48.414;12.768;2023-04-12T21:55:01;95850.0;;;
68446;BMP280;35789;48.414;12.768;2023-04-12T22:00:02;95850.0;;;
68446;BMP280;35789;48.414;12.768;2023-04-12T22:05:00;95860.0;;;
68446;BMP280;35789;48.414;12.768;2023-04-12T22:10:00;95860.0;;;
68446;BMP280;35789;48.414;12.768;2023-04-12T22:15:00;95880.0;;;
68446;BMP280;35789;48.414;12.768;2023-04-12T22:20:00;95890.0;;;
68446;BMP280;35789;48.414;12.768;2023-04-12T22:25:00;95900.0;;;
68446;BMP280;35789;48.414;12.768;2023-04-12T22:30:00;95910.0;;;
68446;BMP280;35789;48.414;12.768;2023-04-12T22:35:00;95910.0;;;
68446;BMP280;35789;48.414;12.768;2023-04-12T22:40:01;95920.0;;;
68446;BMP280;35789;48.414;12.768;2023-04-12T22:45:00;95920.0;;;
68446;BMP280;35789;48.414;12.768;2023-04-12T22:50:00;95920.0;;;
68446;BMP280;35789;48.414;12.768;2023-04-12T22:55:00;95930.0;;;
68446;BMP280;35789;48.414;12.768;2023-04-12T23:00:01;95930.0;;;
68446;BMP280;35789;48.414;12.768;2023-04-12T23:05:00;95940.0;;;
68446;BMP280;35789;48.414;12.768;2023-04-12T23:10:00;95940.0;;;
68446;BMP280;35789;48.414;12.768;2023-04-12T23:15:00;95940.0;;;
68446;BMP280;35789;48.414;12.768;2023-04-12T23:20:00;95940.0;;;
68446;BMP280;35789;48.414;12.768;2023-04-12T23:25:00;95940.0;;;
68446;BMP280;35789;48.414;12.768;2023-04-12T23:30:00;95930.0;;;
68446;BMP280;35789;48.414;12.768;2023-04-12T23:35:00;95930.0;;;
68446;BMP280;35789;48.414;12.768;2023-04-12T23:40:01;95930.0;;;
68446;BMP280;35789;48.414;12.768;2023-04-12T23:45:00;95930.0;;;
68446;BMP280;35789;48.414;12.768;2023-04-12T23:50:00;95930.0;;;
68446;BMP280;35789;48.414;12.768;2023-04-12T23:55:00;95940.0;;;
